createdAt,value
2022-12-08T00:00:52.221Z,100162.13
2022-12-08T00:03:23.015Z,100159.41
2022-12-08T00:06:16.548Z,100152.13
2022-12-08T00:09:04.764Z,100151.83
2022-12-08T00:11:35.605Z,100149.45
2022-12-08T00:14:06.263Z,100145.47
2022-12-08T00:16:37.254Z,100143.09
2022-12-08T00:19:07.859Z,100146.25
2022-12-08T00:21:38.151Z,100145.07
2022-12-08T00:24:09.063Z,100144.91
2022-12-08T00:26:40.347Z,100142.35
2022-12-08T00:29:16.997Z,100142.02
2022-12-08T00:31:48.154Z,100136.46
2022-12-08T00:34:18.767Z,100135.78
2022-12-08T00:36:49.524Z,100132.33
2022-12-08T00:39:20.315Z,100134.09
2022-12-08T00:42:08.393Z,100131.16
2022-12-08T00:44:39.230Z,100134.13
2022-12-08T00:47:09.733Z,100128.61
2022-12-08T00:49:40.561Z,100129.02
2022-12-08T00:52:12.694Z,100130.77
2022-12-08T00:54:43.017Z,100130.25
2022-12-08T00:57:13.342Z,100129.58
2022-12-08T00:59:43.947Z,100121.09
2022-12-08T01:02:14.394Z,100124.24
2022-12-08T01:04:45.106Z,100113.85
2022-12-08T01:07:15.508Z,100114.20
2022-12-08T01:09:45.783Z,100115.24
2022-12-08T01:12:16.198Z,100111.60
2022-12-08T01:14:47.114Z,100106.41
2022-12-08T01:17:17.515Z,100107.81
2022-12-08T01:19:47.894Z,100110.80
2022-12-08T01:22:18.250Z,100111.99
2022-12-08T01:24:48.713Z,100112.35
2022-12-08T01:27:19.404Z,100106.30
2022-12-08T01:29:49.859Z,100102.32
2022-12-08T01:32:20.397Z,100101.70
2022-12-08T01:34:50.710Z,100104.15
2022-12-08T01:37:21.194Z,100105.20
2022-12-08T01:39:51.540Z,100104.17
2022-12-08T01:42:24.296Z,100101.77
2022-12-08T01:45:00.591Z,100099.23
2022-12-08T01:47:36.661Z,100100.45
2022-12-08T01:50:11.365Z,100100.83
2022-12-08T01:52:47.237Z,100097.02
2022-12-08T01:55:22.976Z,100093.79
2022-12-08T01:57:57.024Z,100093.95
2022-12-08T02:00:27.731Z,100089.44
2022-12-08T02:03:01.822Z,100085.77
2022-12-08T02:05:34.811Z,100086.11
2022-12-08T02:08:08.745Z,100082.46
2022-12-08T02:10:41.694Z,100072.88
2022-12-08T02:13:16.277Z,100066.98
2022-12-08T02:15:58.930Z,100068.20
2022-12-08T02:18:43.857Z,100072.71
2022-12-08T02:21:19.427Z,100071.67
2022-12-08T02:23:58.308Z,100074.28
2022-12-08T02:26:58.786Z,100068.75
2022-12-08T02:29:53.689Z,100067.88
2022-12-08T02:32:45.822Z,100068.23
2022-12-08T02:35:23.318Z,100067.04
2022-12-08T02:38:05.478Z,100063.39
2022-12-08T02:40:44.154Z,100061.47
2022-12-08T02:43:21.442Z,100058.20
2022-12-08T02:45:56.376Z,100054.55
2022-12-08T02:48:29.526Z,100055.10
2022-12-08T02:51:00.090Z,100055.12
2022-12-08T02:53:33.188Z,100052.86
2022-12-08T02:56:14.969Z,100052.91
2022-12-08T02:59:15.068Z,100051.74
2022-12-08T03:02:01.044Z,100049.15
2022-12-08T03:04:43.230Z,100045.67
2022-12-08T03:07:22.414Z,100044.98
2022-12-08T03:09:57.663Z,100043.24
2022-12-08T03:12:33.315Z,100041.70
2022-12-08T03:15:08.835Z,100038.08
2022-12-08T03:17:41.202Z,100035.98
2022-12-08T03:20:17.463Z,100035.82
2022-12-08T03:22:50.312Z,100032.15
2022-12-08T03:25:26.779Z,100030.73
2022-12-08T03:27:57.672Z,100031.59
2022-12-08T03:30:30.953Z,100027.44
2022-12-08T03:33:06.063Z,100026.42
2022-12-08T03:35:40.334Z,100020.73
2022-12-08T03:38:14.556Z,100016.40
2022-12-08T03:41:05.821Z,100015.53
2022-12-08T03:43:36.480Z,100013.30
2022-12-08T03:46:06.987Z,100008.30
2022-12-08T03:48:37.532Z,100007.81
2022-12-08T03:51:07.927Z,100004.73
2022-12-08T03:53:38.647Z,100004.44
2022-12-08T03:56:20.592Z,100004.30
2022-12-08T03:58:53.250Z,100000.49
2022-12-08T04:01:24.191Z,99996.70
2022-12-08T04:03:55.240Z,99993.75
2022-12-08T04:06:25.594Z,99992.75
2022-12-08T04:08:56.071Z,99992.77
2022-12-08T04:11:26.509Z,99985.99
2022-12-08T04:13:56.921Z,99982.53
2022-12-08T04:16:28.551Z,99985.35
2022-12-08T04:18:59.023Z,99983.27
2022-12-08T04:21:29.528Z,99978.44
2022-12-08T04:24:01.428Z,99980.20
2022-12-08T04:26:32.189Z,99978.64
2022-12-08T04:29:02.670Z,99971.92
2022-12-08T04:31:33.066Z,99973.89
2022-12-08T04:34:03.869Z,99968.16
2022-12-08T04:36:34.282Z,99967.14
2022-12-08T04:39:05.183Z,99966.67
2022-12-08T04:41:35.824Z,99966.00
2022-12-08T04:44:06.354Z,99962.34
2022-12-08T04:46:41.706Z,99962.14
2022-12-08T04:49:13.823Z,99965.61
2022-12-08T04:51:44.385Z,99966.13
2022-12-08T04:54:14.875Z,99964.16
2022-12-08T04:56:45.202Z,99964.69
2022-12-08T04:59:15.618Z,99970.08
2022-12-08T05:01:46.089Z,99969.55
2022-12-08T05:04:16.790Z,99970.77
2022-12-08T05:06:47.169Z,99972.48
2022-12-08T05:09:17.660Z,99970.91
2022-12-08T05:11:49.210Z,99970.41
2022-12-08T05:14:21.219Z,99969.03
2022-12-08T05:16:51.620Z,99963.99
2022-12-08T05:19:22.151Z,99966.95
2022-12-08T05:21:52.599Z,99962.58
2022-12-08T05:24:23.060Z,99964.15
2022-12-08T05:26:53.438Z,99958.95
2022-12-08T05:29:23.832Z,99953.73
2022-12-08T05:31:54.192Z,99952.52
2022-12-08T05:34:24.777Z,99952.21
2022-12-08T05:36:55.093Z,99947.58
2022-12-08T05:39:25.587Z,99948.64
2022-12-08T05:41:56.026Z,99949.92
2022-12-08T05:44:26.869Z,99950.31
2022-12-08T05:46:57.320Z,99947.02
2022-12-08T05:49:27.747Z,99945.98
2022-12-08T05:51:58.076Z,99941.33
2022-12-08T05:54:28.444Z,99935.27
2022-12-08T05:56:58.863Z,99932.33
2022-12-08T05:59:29.352Z,99934.92
2022-12-08T06:01:59.972Z,99935.61
2022-12-08T06:04:30.557Z,99939.42
2022-12-08T06:07:00.900Z,99943.59
2022-12-08T06:09:32.805Z,99945.67
2022-12-08T06:12:03.869Z,99950.70
2022-12-08T06:14:34.589Z,99951.04
2022-12-08T06:17:04.992Z,99955.02
2022-12-08T06:19:35.496Z,99955.02
2022-12-08T06:22:05.985Z,99959.34
2022-12-08T06:24:36.336Z,99962.80
2022-12-08T06:27:06.719Z,99960.34
2022-12-08T06:29:37.168Z,99958.07
2022-12-08T06:32:07.937Z,99961.70
2022-12-08T06:34:38.342Z,99963.08
2022-12-08T06:37:08.777Z,99956.81
2022-12-08T06:39:39.373Z,99960.27
2022-12-08T06:42:36.563Z,99957.48
2022-12-08T06:45:08.382Z,99955.39
2022-12-08T06:47:39.029Z,99952.95
2022-12-08T06:50:14.216Z,99956.23
2022-12-08T06:52:56.888Z,99955.69
2022-12-08T06:55:58.675Z,99952.04
2022-12-08T06:58:19.687Z,99955.02
2022-12-08T07:00:50.211Z,99953.59
2022-12-08T07:03:20.803Z,99954.63
2022-12-08T07:05:51.269Z,99949.74
2022-12-08T07:08:21.682Z,99951.12
2022-12-08T07:10:52.545Z,99956.14
2022-12-08T07:13:23.192Z,99954.91
2022-12-08T07:15:53.671Z,99961.32
2022-12-08T07:18:24.053Z,99961.99
2022-12-08T07:20:54.508Z,99962.85
2022-12-08T07:23:24.889Z,99962.68
2022-12-08T07:25:55.296Z,99962.48
2022-12-08T07:28:25.782Z,99962.98
2022-12-08T07:30:56.173Z,99960.20
2022-12-08T07:33:27.073Z,99959.67
2022-12-08T07:35:59.537Z,99960.16
2022-12-08T07:38:30.735Z,99963.09
2022-12-08T07:41:01.274Z,99956.29
2022-12-08T07:43:32.617Z,99956.98
2022-12-08T07:46:01.677Z,99960.58
2022-12-08T07:48:32.098Z,99954.64
2022-12-08T07:51:06.289Z,99952.52
2022-12-08T07:53:37.110Z,99950.06
2022-12-08T07:56:11.108Z,99949.84
2022-12-08T07:58:42.751Z,99948.39
2022-12-08T08:01:26.743Z,99951.29
2022-12-08T08:04:01.747Z,99948.64
2022-12-08T08:06:32.953Z,99945.13
2022-12-08T08:09:03.509Z,99945.80
2022-12-08T08:11:33.996Z,99942.82
2022-12-08T08:14:04.760Z,99945.23
2022-12-08T08:16:38.578Z,99941.54
2022-12-08T08:19:09.556Z,99942.37
2022-12-08T08:21:47.423Z,99943.84
2022-12-08T08:24:18.331Z,99949.89
2022-12-08T08:26:48.693Z,99949.30
2022-12-08T08:29:19.421Z,99948.23
2022-12-08T08:31:49.839Z,99950.25
2022-12-08T08:34:20.924Z,99943.41
2022-12-08T08:36:51.431Z,99948.79
2022-12-08T08:39:21.871Z,99947.66
2022-12-08T08:41:52.522Z,99951.46
2022-12-08T08:44:23.284Z,99952.29
2022-12-08T08:46:54.118Z,99947.75
2022-12-08T08:49:24.658Z,99944.93
2022-12-08T08:51:55.338Z,99944.55
2022-12-08T08:54:25.777Z,99939.47
2022-12-08T08:56:56.564Z,99939.78
2022-12-08T08:59:27.220Z,99938.02
2022-12-08T09:01:58.005Z,99939.39
2022-12-08T09:04:28.499Z,99937.48
2022-12-08T09:06:59.575Z,99935.21
2022-12-08T09:09:30.969Z,99936.23
2022-12-08T09:11:59.935Z,99939.72
2022-12-08T09:14:30.630Z,99944.05
2022-12-08T09:17:01.272Z,99944.38
2022-12-08T09:19:31.758Z,99943.11
2022-12-08T09:22:02.249Z,99939.41
2022-12-08T09:24:33.017Z,99942.67
2022-12-08T09:27:03.486Z,99941.68
2022-12-08T09:29:36.265Z,99942.93
2022-12-08T09:32:07.650Z,99938.59
2022-12-08T09:34:38.134Z,99932.38
2022-12-08T09:37:08.988Z,99933.48
2022-12-08T09:39:39.403Z,99930.73
2022-12-08T09:42:11.287Z,99928.89
2022-12-08T09:44:52.045Z,99923.05
2022-12-08T09:47:30.732Z,99922.61
2022-12-08T09:50:09.092Z,99920.05
2022-12-08T09:52:46.291Z,99913.55
2022-12-08T09:55:25.390Z,99909.23
2022-12-08T09:58:04.219Z,99902.85
2022-12-08T10:00:35.369Z,99907.22
2022-12-08T10:03:12.368Z,99905.08
2022-12-08T10:05:54.528Z,99901.06
2022-12-08T10:08:32.074Z,99897.74
2022-12-08T10:11:11.848Z,99892.52
2022-12-08T10:13:49.605Z,99888.10
2022-12-08T10:16:30.294Z,99886.61
2022-12-08T10:19:14.606Z,99886.02
2022-12-08T10:21:45.649Z,99882.41
2022-12-08T10:24:27.908Z,99882.23
2022-12-08T10:26:59.053Z,99882.45
2022-12-08T10:29:29.699Z,99878.36
2022-12-08T10:32:01.744Z,99876.22
2022-12-08T10:34:32.694Z,99875.20
2022-12-08T10:37:09.893Z,99873.92
2022-12-08T10:39:43.907Z,99870.16
2022-12-08T10:42:22.915Z,99866.27
2022-12-08T10:45:00.299Z,99859.90
2022-12-08T10:47:36.354Z,99853.48
2022-12-08T10:50:34.548Z,99850.90
2022-12-08T10:53:16.626Z,99851.93
2022-12-08T10:55:49.562Z,99847.91
2022-12-08T10:58:35.804Z,99845.75
2022-12-08T11:01:12.668Z,99839.86
2022-12-08T11:03:49.838Z,99838.84
2022-12-08T11:06:24.781Z,99839.10
2022-12-08T11:08:56.917Z,99839.48
2022-12-08T11:11:45.374Z,99839.17
2022-12-08T11:14:20.715Z,99837.20
2022-12-08T11:16:53.157Z,99832.23
2022-12-08T11:19:27.788Z,99829.65
2022-12-08T11:21:58.165Z,99831.92
2022-12-08T11:24:36.040Z,99825.29
2022-12-08T11:27:09.632Z,99820.45
2022-12-08T11:29:40.336Z,99820.11
2022-12-08T11:32:14.888Z,99813.91
2022-12-08T11:34:49.452Z,99807.84
2022-12-08T11:37:28.575Z,99802.41
2022-12-08T11:40:06.605Z,99799.79
2022-12-08T11:42:47.547Z,99803.89
2022-12-08T11:45:25.643Z,99800.69
2022-12-08T11:48:05.762Z,99800.36
2022-12-08T11:50:44.621Z,99797.90
2022-12-08T11:53:23.565Z,99794.23
2022-12-08T11:55:59.152Z,99790.15
2022-12-08T11:58:37.300Z,99786.42
2022-12-08T12:01:16.286Z,99782.09
2022-12-08T12:03:54.034Z,99781.07
2022-12-08T12:06:58.984Z,99771.14
2022-12-08T12:09:43.808Z,99772.48
2022-12-08T12:12:30.303Z,99769.39
2022-12-08T12:15:30.022Z,99767.64
2022-12-08T12:18:04.554Z,99767.81
2022-12-08T12:20:39.987Z,99763.21
2022-12-08T12:23:20.942Z,99762.02
2022-12-08T12:25:57.205Z,99758.58
2022-12-08T12:28:31.736Z,99754.38
2022-12-08T12:31:07.413Z,99747.64
2022-12-08T12:33:38.679Z,99744.77
2022-12-08T12:36:12.188Z,99742.56
2022-12-08T12:39:06.380Z,99744.45
2022-12-08T12:41:44.677Z,99744.30
2022-12-08T12:44:44.518Z,99742.73
2022-12-08T12:47:37.100Z,99740.98
2022-12-08T12:50:13.313Z,99739.74
2022-12-08T12:52:53.317Z,99740.59
2022-12-08T12:55:30.041Z,99739.73
2022-12-08T12:58:04.673Z,99738.69
2022-12-08T13:00:35.349Z,99735.35
2022-12-08T13:03:06.232Z,99738.36
2022-12-08T13:05:50.584Z,99741.67
2022-12-08T13:08:25.694Z,99737.63
2022-12-08T13:11:03.995Z,99740.05
2022-12-08T13:13:34.815Z,99737.75
2022-12-08T13:16:19.122Z,99738.80
2022-12-08T13:18:52.364Z,99738.65
2022-12-08T13:21:24.600Z,99734.73
2022-12-08T13:24:19.886Z,99732.43
2022-12-08T13:26:52.167Z,99728.38
2022-12-08T13:29:25.575Z,99721.21
2022-12-08T13:31:57.699Z,99724.77
2022-12-08T13:34:41.248Z,99720.31
2022-12-08T13:37:26.522Z,99711.60
2022-12-08T13:40:00.490Z,99708.09
2022-12-08T13:42:42.011Z,99712.00
2022-12-08T13:45:33.651Z,99712.34
2022-12-08T13:48:36.740Z,99710.58
2022-12-08T13:57:10.552Z,99717.55
2022-12-08T13:59:46.562Z,99718.45
2022-12-08T14:02:27.885Z,99723.29
2022-12-08T14:07:50.842Z,99721.38
2022-12-08T14:10:24.438Z,99724.17
2022-12-08T14:13:00.498Z,99721.41
2022-12-08T14:15:37.788Z,99721.77
2022-12-08T14:18:26.468Z,99722.70
2022-12-08T14:21:21.960Z,99723.64
2022-12-08T14:23:55.067Z,99719.33
2022-12-08T14:26:29.636Z,99722.73
2022-12-08T14:29:02.786Z,99720.42
2022-12-08T14:31:36.531Z,99720.15
2022-12-08T14:34:07.403Z,99720.04
2022-12-08T14:36:36.717Z,99724.80
2022-12-08T14:39:12.033Z,99724.23
2022-12-08T14:42:06.578Z,99722.95
2022-12-08T14:44:57.620Z,99724.61
2022-12-08T14:47:34.460Z,99725.58
2022-12-08T14:50:27.941Z,99726.20
2022-12-08T14:52:58.558Z,99729.16
2022-12-08T14:55:30.112Z,99730.26
2022-12-08T14:58:00.694Z,99731.08
2022-12-08T15:00:34.995Z,99733.00
2022-12-08T15:03:10.836Z,99731.63
2022-12-08T15:05:41.497Z,99731.95
2022-12-08T15:08:13.945Z,99733.30
2022-12-08T15:10:48.262Z,99730.83
2022-12-08T15:13:30.132Z,99732.33
2022-12-08T15:16:02.742Z,99730.55
2022-12-08T15:18:39.538Z,99731.35
2022-12-08T15:21:12.953Z,99732.15
2022-12-08T15:23:46.173Z,99730.89
2022-12-08T15:26:22.193Z,99729.05
2022-12-08T15:28:56.115Z,99727.90
2022-12-08T15:31:26.711Z,99729.00
2022-12-08T15:33:57.224Z,99730.82
2022-12-08T15:36:27.524Z,99725.48
2022-12-08T15:38:57.970Z,99725.37
2022-12-08T15:41:28.525Z,99724.38
2022-12-08T15:43:59.126Z,99723.73
2022-12-08T15:46:29.804Z,99724.27
2022-12-08T15:49:00.348Z,99722.19
2022-12-08T15:51:36.506Z,99725.19
2022-12-08T15:54:07.246Z,99727.33
2022-12-08T15:56:45.416Z,99728.95
2022-12-08T15:59:28.562Z,99726.71
2022-12-08T16:01:59.363Z,99725.39
2022-12-08T16:05:25.100Z,99729.83
2022-12-08T16:07:26.207Z,99730.40
2022-12-08T16:09:57.915Z,99731.70
2022-12-08T16:16:00.708Z,99726.42
2022-12-08T16:18:34.312Z,99719.66
2022-12-08T16:21:31.692Z,99722.66
2022-12-08T16:23:56.076Z,99715.41
2022-12-08T16:27:22.543Z,99711.23
2022-12-08T16:29:22.532Z,99713.13
2022-12-08T16:31:53.345Z,99710.00
2022-12-08T16:34:23.762Z,99705.67
2022-12-08T16:36:54.695Z,99707.44
2022-12-08T16:39:25.268Z,99703.97
2022-12-08T16:42:13.696Z,99703.29
2022-12-08T16:44:44.518Z,99703.30
2022-12-08T16:47:14.962Z,99702.94
2022-12-08T16:49:45.282Z,99702.08
2022-12-08T16:52:15.778Z,99701.20
2022-12-08T16:54:46.224Z,99698.96
2022-12-08T16:57:17.010Z,99700.36
2022-12-08T16:59:47.738Z,99702.80
2022-12-08T17:02:18.260Z,99697.23
2022-12-08T17:04:49.063Z,99695.51
2022-12-08T17:07:19.649Z,99696.22
2022-12-08T17:09:50.103Z,99696.23
2022-12-08T17:12:20.710Z,99697.13
2022-12-08T17:14:51.535Z,99699.23
2022-12-08T17:17:22.191Z,99696.84
2022-12-08T17:19:52.908Z,99699.45
2022-12-08T17:22:23.597Z,99699.12
2022-12-08T17:24:54.291Z,99695.48
2022-12-08T17:27:24.907Z,99692.86
2022-12-08T17:29:55.564Z,99691.13
2022-12-08T17:32:27.059Z,99691.84
2022-12-08T17:34:58.026Z,99693.42
2022-12-08T17:37:28.581Z,99693.98
2022-12-08T17:39:59.210Z,99693.83
2022-12-08T17:42:29.946Z,99699.76
2022-12-08T17:45:00.484Z,99693.71
2022-12-08T17:47:31.009Z,99694.77
2022-12-08T17:50:01.853Z,99687.30
2022-12-08T17:52:32.473Z,99689.39
2022-12-08T17:55:03.056Z,99686.45
2022-12-08T17:57:33.642Z,99684.20
2022-12-08T18:00:05.423Z,99687.19
2022-12-08T18:02:42.711Z,99682.31
2022-12-08T18:05:13.264Z,99682.14
2022-12-08T18:07:43.763Z,99684.95
2022-12-08T18:10:14.427Z,99689.48
2022-12-08T18:12:45.077Z,99690.39
2022-12-08T18:15:19.693Z,99692.84
2022-12-08T18:17:50.053Z,99694.96
2022-12-08T18:20:20.670Z,99688.37
2022-12-08T18:22:51.052Z,99685.77
2022-12-08T18:25:21.878Z,99683.17
2022-12-08T18:27:52.269Z,99690.30
2022-12-08T18:30:23.361Z,99689.81
2022-12-08T18:32:57.331Z,99686.38
2022-12-08T18:35:28.948Z,99693.54
2022-12-08T18:38:00.247Z,99689.89
2022-12-08T18:40:31.036Z,99692.86
2022-12-08T18:43:01.794Z,99687.97
2022-12-08T18:45:32.736Z,99690.95
2022-12-08T18:48:03.522Z,99691.82
2022-12-08T18:50:34.051Z,99687.49
2022-12-08T18:53:04.477Z,99686.98
2022-12-08T18:55:35.071Z,99690.13
2022-12-08T18:58:05.649Z,99685.80
2022-12-08T19:00:36.216Z,99684.77
2022-12-08T19:03:06.840Z,99684.93
2022-12-08T19:05:37.375Z,99685.46
2022-12-08T19:08:08.993Z,99682.70
2022-12-08T19:10:40.334Z,99686.73
2022-12-08T19:13:09.630Z,99689.55
2022-12-08T19:15:40.183Z,99691.01
2022-12-08T19:18:10.768Z,99691.77
2022-12-08T19:20:41.159Z,99690.58
2022-12-08T19:23:12.578Z,99686.80
2022-12-08T19:25:41.658Z,99687.38
2022-12-08T19:28:12.144Z,99690.20
2022-12-08T19:30:42.640Z,99689.59
2022-12-08T19:33:13.236Z,99689.95
2022-12-08T19:35:47.609Z,99689.28
2022-12-08T19:38:22.656Z,99691.58
2022-12-08T19:41:10.723Z,99688.46
2022-12-08T19:43:59.109Z,99687.96
2022-12-08T19:46:29.750Z,99683.32
2022-12-08T19:49:00.333Z,99685.94
2022-12-08T19:51:30.771Z,99684.21
2022-12-08T19:54:01.309Z,99683.71
2022-12-08T19:56:31.706Z,99678.73
2022-12-08T19:59:02.505Z,99675.64
2022-12-08T20:01:33.095Z,99675.00
2022-12-08T20:04:03.796Z,99675.73
2022-12-08T20:06:34.358Z,99671.27
2022-12-08T20:09:05.001Z,99670.98
2022-12-08T20:11:35.902Z,99668.08
2022-12-08T20:14:06.604Z,99671.59
2022-12-08T20:16:37.596Z,99668.14
2022-12-08T20:19:08.101Z,99668.34
2022-12-08T20:21:39.891Z,99671.83
2022-12-08T20:24:10.866Z,99666.66
2022-12-08T20:26:41.407Z,99668.27
2022-12-08T20:29:12.447Z,99668.30
2022-12-08T20:31:43.110Z,99670.58
2022-12-08T20:34:17.443Z,99665.57
2022-12-08T20:36:48.579Z,99667.67
2022-12-08T20:39:20.576Z,99665.46
2022-12-08T20:41:52.319Z,99665.15
2022-12-08T20:44:23.000Z,99661.34
2022-12-08T20:46:53.621Z,99657.76
2022-12-08T20:49:26.321Z,99661.61
2022-12-08T20:52:00.492Z,99664.23
2022-12-08T20:54:35.528Z,99661.14
2022-12-08T20:57:06.112Z,99664.63
2022-12-08T20:59:36.620Z,99660.13
2022-12-08T21:02:07.801Z,99662.05
2022-12-08T21:04:38.642Z,99665.20
2022-12-08T21:07:09.817Z,99663.10
2022-12-08T21:09:40.716Z,99667.30
2022-12-08T21:12:11.590Z,99668.71
2022-12-08T21:14:42.443Z,99669.61
2022-12-08T21:17:13.102Z,99665.63
2022-12-08T21:19:43.918Z,99666.32
2022-12-08T21:22:14.919Z,99667.20
2022-12-08T21:24:45.815Z,99667.02
2022-12-08T21:27:16.444Z,99664.94
2022-12-08T21:29:47.194Z,99661.81
2022-12-08T21:32:18.897Z,99665.81
2022-12-08T21:34:49.826Z,99660.09
2022-12-08T21:37:20.492Z,99660.82
2022-12-08T21:39:51.523Z,99661.89
2022-12-08T21:42:39.753Z,99665.02
2022-12-08T21:45:12.882Z,99665.94
2022-12-08T21:47:43.772Z,99671.85
2022-12-08T21:50:15.864Z,99667.36
2022-12-08T21:52:47.973Z,99672.41
2022-12-08T21:55:20.403Z,99673.81
2022-12-08T21:57:50.831Z,99671.23
2022-12-08T22:00:24.317Z,99668.48
2022-12-08T22:02:55.144Z,99667.12
2022-12-08T22:05:25.786Z,99663.49
2022-12-08T22:07:56.404Z,99665.25
2022-12-08T22:10:27.392Z,99663.34
2022-12-08T22:12:57.885Z,99663.55
2022-12-08T22:15:29.809Z,99663.58
2022-12-08T22:18:00.524Z,99664.14
2022-12-08T22:20:31.478Z,99662.42
2022-12-08T22:23:02.030Z,99664.00
2022-12-08T22:25:32.588Z,99664.20
2022-12-08T22:28:03.041Z,99667.38
2022-12-08T22:30:38.859Z,99664.98
2022-12-08T22:33:09.666Z,99666.41
2022-12-08T22:35:40.041Z,99666.64
2022-12-08T22:38:10.595Z,99665.29
2022-12-08T22:40:43.545Z,99664.29
2022-12-08T22:43:13.856Z,99656.98
2022-12-08T22:45:44.692Z,99655.81
2022-12-08T22:48:15.483Z,99652.88
2022-12-08T22:50:47.045Z,99655.31
2022-12-08T22:53:17.406Z,99654.66
2022-12-08T22:55:48.140Z,99651.89
2022-12-08T22:58:18.527Z,99652.25
2022-12-08T23:00:49.182Z,99652.45
2022-12-08T23:03:20.138Z,99650.73
2022-12-08T23:05:51.002Z,99643.28
2022-12-08T23:08:21.706Z,99642.41
2022-12-08T23:10:53.327Z,99639.67
2022-12-08T23:13:24.372Z,99641.09
2022-12-08T23:15:54.849Z,99640.59
2022-12-08T23:18:25.572Z,99637.64
2022-12-08T23:20:55.966Z,99637.14
2022-12-08T23:23:26.283Z,99635.42
2022-12-08T23:25:56.699Z,99634.20
2022-12-08T23:28:27.279Z,99629.04
2022-12-08T23:30:57.769Z,99626.30
2022-12-08T23:33:28.255Z,99623.73
2022-12-08T23:35:59.998Z,99622.71
2022-12-08T23:38:30.799Z,99622.25
2022-12-08T23:41:05.377Z,99617.41
2022-12-08T23:43:36.519Z,99618.18
2022-12-08T23:46:07.716Z,99609.92
2022-12-08T23:48:38.176Z,99609.98
2022-12-08T23:51:08.898Z,99603.52
2022-12-08T23:53:39.628Z,99599.59
2022-12-08T23:56:13.501Z,99595.73
2022-12-08T23:58:44.408Z,99590.15
